Etusivu
METAR-TAF:

METAR-TAF

Lentoasemat :

Östersund-Frösön, Ruotsi

Åre Östersundin lentoasema

Leveyspiiri: 63-11N, Pituuspiiri: 014-30E, korkeus merenpinnasta: 376 m

Tämänhetkinen sää

Tämä raportti tehtiin 30 minuuttia sitten, kello 13.50 UTC
Tuuli 2 kn idästä/kaakosta
Lämpötila -12°C
Kosteus 92%
Ilmanpaine 1010 hPa
Näkyvyys: 4000 m
Pilvistä 600 ft:n korkeudessa
heikkoa lumisadetta

METAR: ESNZ 221350Z 11002KT 4000 -SN OVC006 M12/M13 Q1010

Aika: 15:20 (14:20 UTC)

Sääennuste

Tämä raportti tehtiin 1 tunti ja 13 minuuttia sitten, kello 13.07 UTC
Ennuste voimassa 22. päivästä klo 13 UTC - 22. päivään klo 21 UTC
Tuuli 2 kn eri suunnista
Näkyvyys: 8000 m
Hajonneita pilviä 400 ft:n korkeudessa
heikkoa lumisadetta
Ajoittain
22. päivästä klo 13 UTC - 22. päivään klo 21 UTC
Näkyvyys: 2500 m
Hajonneita pilviä 800 ft:n korkeudessa

TAF: ESNZ 221307Z 2213/2221 VRB02KT 8000 -SN BKN004 TEMPO 2213/2221 2500 BKN008

Säähavainnot ja -ennusteet yli 4000 lentoasemalta (METAR- ja TAF-raportit).

Käytössä olevat sääasemat on merkitty karttaan keltaisilla ja punaisilla pisteillä.

Aseta hiiri pisteen päälle nähdäksesi sääaseman nimen.

Klikkaa sitten nähdäksesi säähavainnot ja -ennusteet.

Kartan vaihtaminen: klikkaa mustalla rastilla varustettuja vihreitä pisteitä, niin voit zoomata sisään; viivalla varustettua vihreää pistettä, niin voit zoomata ulos tai vihreitä nuolia, niin pääset viereisille kartoille.


METAR-TAF: